sensor_id;sensor_type;location;lat;lon;timestamp;P1;durP1;ratioP1;P2;durP2;ratioP2
65552;SDS011;72126;51.560;14.368;2023-10-13T00:00:14;2.58;;;2.08;;
65552;SDS011;72126;51.560;14.368;2023-10-13T00:02:40;2.10;;;1.80;;
65552;SDS011;72126;51.560;14.368;2023-10-13T00:05:05;3.50;;;2.10;;
65552;SDS011;72126;51.560;14.368;2023-10-13T00:07:30;2.35;;;1.90;;
65552;SDS011;72126;51.560;14.368;2023-10-13T00:09:55;2.27;;;1.90;;
65552;SDS011;72126;51.560;14.368;2023-10-13T00:12:20;2.43;;;1.80;;
65552;SDS011;72126;51.560;14.368;2023-10-13T00:14:46;2.43;;;2.00;;
65552;SDS011;72126;51.560;14.368;2023-10-13T00:17:11;1.83;;;1.63;;
65552;SDS011;72126;51.560;14.368;2023-10-13T00:19:37;2.60;;;2.10;;
65552;SDS011;72126;51.560;14.368;2023-10-13T00:22:06;2.33;;;1.80;;
65552;SDS011;72126;51.560;14.368;2023-10-13T00:24:32;2.95;;;2.20;;
65552;SDS011;72126;51.560;14.368;2023-10-13T00:26:57;2.23;;;1.90;;
65552;SDS011;72126;51.560;14.368;2023-10-13T00:29:23;2.63;;;1.97;;
65552;SDS011;72126;51.560;14.368;2023-10-13T00:31:48;1.70;;;1.60;;
65552;SDS011;72126;51.560;14.368;2023-10-13T00:34:13;2.57;;;1.90;;
65552;SDS011;72126;51.560;14.368;2023-10-13T00:36:40;3.15;;;1.80;;
65552;SDS011;72126;51.560;14.368;2023-10-13T00:39:05;4.15;;;1.63;;
65552;SDS011;72126;51.560;14.368;2023-10-13T00:41:30;2.30;;;1.80;;
65552;SDS011;72126;51.560;14.368;2023-10-13T00:43:55;2.30;;;1.50;;
65552;SDS011;72126;51.560;14.368;2023-10-13T00:46:20;3.07;;;1.70;;
65552;SDS011;72126;51.560;14.368;2023-10-13T00:48:46;2.13;;;1.77;;
65552;SDS011;72126;51.560;14.368;2023-10-13T00:51:11;3.28;;;1.92;;
65552;SDS011;72126;51.560;14.368;2023-10-13T00:53:37;2.63;;;1.85;;
65552;SDS011;72126;51.560;14.368;2023-10-13T00:56:05;2.13;;;1.92;;
65552;SDS011;72126;51.560;14.368;2023-10-13T00:58:33;2.90;;;1.98;;
65552;SDS011;72126;51.560;14.368;2023-10-13T01:01:00;2.88;;;1.90;;
65552;SDS011;72126;51.560;14.368;2023-10-13T01:03:26;2.33;;;1.80;;
65552;SDS011;72126;51.560;14.368;2023-10-13T01:05:52;2.63;;;2.03;;
65552;SDS011;72126;51.560;14.368;2023-10-13T01:08:30;2.67;;;2.05;;
65552;SDS011;72126;51.560;14.368;2023-10-13T01:10:56;2.47;;;1.80;;
65552;SDS011;72126;51.560;14.368;2023-10-13T01:13:21;1.70;;;1.60;;
65552;SDS011;72126;51.560;14.368;2023-10-13T01:15:46;2.20;;;1.80;;
65552;SDS011;72126;51.560;14.368;2023-10-13T01:18:11;2.50;;;1.90;;
65552;SDS011;72126;51.560;14.368;2023-10-13T01:20:37;3.40;;;2.10;;
65552;SDS011;72126;51.560;14.368;2023-10-13T01:23:04;2.65;;;1.70;;
65552;SDS011;72126;51.560;14.368;2023-10-13T01:25:30;2.67;;;1.90;;
65552;SDS011;72126;51.560;14.368;2023-10-13T01:27:56;3.43;;;2.30;;
65552;SDS011;72126;51.560;14.368;2023-10-13T01:30:21;2.37;;;1.87;;
65552;SDS011;72126;51.560;14.368;2023-10-13T01:32:46;2.23;;;1.90;;
65552;SDS011;72126;51.560;14.368;2023-10-13T01:35:11;2.57;;;1.77;;
65552;SDS011;72126;51.560;14.368;2023-10-13T01:37:36;2.10;;;1.73;;
65552;SDS011;72126;51.560;14.368;2023-10-13T01:40:01;2.27;;;1.80;;
65552;SDS011;72126;51.560;14.368;2023-10-13T01:42:27;3.17;;;1.80;;
65552;SDS011;72126;51.560;14.368;2023-10-13T01:44:52;3.73;;;2.03;;
65552;SDS011;72126;51.560;14.368;2023-10-13T01:47:17;2.23;;;1.70;;
65552;SDS011;72126;51.560;14.368;2023-10-13T01:49:42;1.87;;;1.67;;
65552;SDS011;72126;51.560;14.368;2023-10-13T01:52:08;2.42;;;1.85;;
65552;SDS011;72126;51.560;14.368;2023-10-13T01:54:34;2.70;;;1.70;;
65552;SDS011;72126;51.560;14.368;2023-10-13T01:56:59;2.17;;;1.87;;
65552;SDS011;72126;51.560;14.368;2023-10-13T01:59:24;2.33;;;1.70;;
65552;SDS011;72126;51.560;14.368;2023-10-13T02:01:50;2.67;;;2.20;;
65552;SDS011;72126;51.560;14.368;2023-10-13T02:04:15;2.07;;;1.73;;
65552;SDS011;72126;51.560;14.368;2023-10-13T02:06:40;2.63;;;1.70;;
65552;SDS011;72126;51.560;14.368;2023-10-13T02:09:08;2.60;;;1.83;;
65552;SDS011;72126;51.560;14.368;2023-10-13T02:11:34;2.50;;;1.80;;
65552;SDS011;72126;51.560;14.368;2023-10-13T02:13:59;2.23;;;1.70;;
65552;SDS011;72126;51.560;14.368;2023-10-13T02:16:24;2.60;;;1.80;;
65552;SDS011;72126;51.560;14.368;2023-10-13T02:18:49;3.83;;;2.10;;
65552;SDS011;72126;51.560;14.368;2023-10-13T02:21:14;3.37;;;2.23;;
65552;SDS011;72126;51.560;14.368;2023-10-13T02:23:40;4.03;;;1.63;;
65552;SDS011;72126;51.560;14.368;2023-10-13T02:26:05;1.88;;;1.77;;
65552;SDS011;72126;51.560;14.368;2023-10-13T02:28:31;2.87;;;1.90;;
65552;SDS011;72126;51.560;14.368;2023-10-13T02:30:56;2.17;;;1.80;;
65552;SDS011;72126;51.560;14.368;2023-10-13T02:33:21;2.10;;;1.63;;
65552;SDS011;72126;51.560;14.368;2023-10-13T02:35:46;1.97;;;1.67;;
65552;SDS011;72126;51.560;14.368;2023-10-13T02:38:11;2.43;;;1.80;;
65552;SDS011;72126;51.560;14.368;2023-10-13T02:40:38;3.30;;;1.97;;
65552;SDS011;72126;51.560;14.368;2023-10-13T02:43:04;2.53;;;2.08;;
65552;SDS011;72126;51.560;14.368;2023-10-13T02:45:29;2.63;;;1.80;;
65552;SDS011;72126;51.560;14.368;2023-10-13T02:47:54;2.60;;;2.03;;
65552;SDS011;72126;51.560;14.368;2023-10-13T02:50:20;2.60;;;2.03;;
65552;SDS011;72126;51.560;14.368;2023-10-13T02:52:45;2.10;;;1.90;;
65552;SDS011;72126;51.560;14.368;2023-10-13T02:55:10;2.57;;;1.70;;
65552;SDS011;72126;51.560;14.368;2023-10-13T02:57:35;2.20;;;1.73;;
65552;SDS011;72126;51.560;14.368;2023-10-13T03:00:01;2.65;;;1.75;;
65552;SDS011;72126;51.560;14.368;2023-10-13T03:02:26;2.40;;;2.00;;
65552;SDS011;72126;51.560;14.368;2023-10-13T03:04:52;2.90;;;2.17;;
65552;SDS011;72126;51.560;14.368;2023-10-13T03:07:19;2.58;;;1.98;;
65552;SDS011;72126;51.560;14.368;2023-10-13T03:09:47;2.03;;;1.83;;
65552;SDS011;72126;51.560;14.368;2023-10-13T03:12:13;3.50;;;2.05;;
65552;SDS011;72126;51.560;14.368;2023-10-13T03:14:38;2.50;;;1.70;;
65552;SDS011;72126;51.560;14.368;2023-10-13T03:17:03;2.63;;;2.03;;
65552;SDS011;72126;51.560;14.368;2023-10-13T03:19:28;2.80;;;2.00;;
65552;SDS011;72126;51.560;14.368;2023-10-13T03:21:54;2.20;;;1.83;;
65552;SDS011;72126;51.560;14.368;2023-10-13T03:24:19;3.00;;;2.10;;
65552;SDS011;72126;51.560;14.368;2023-10-13T03:26:44;2.30;;;1.87;;
65552;SDS011;72126;51.560;14.368;2023-10-13T03:29:09;2.00;;;1.70;;
65552;SDS011;72126;51.560;14.368;2023-10-13T03:31:35;3.10;;;1.98;;
65552;SDS011;72126;51.560;14.368;2023-10-13T03:34:00;2.77;;;2.00;;
65552;SDS011;72126;51.560;14.368;2023-10-13T03:36:26;3.27;;;2.00;;
65552;SDS011;72126;51.560;14.368;2023-10-13T03:38:51;2.90;;;1.92;;
65552;SDS011;72126;51.560;14.368;2023-10-13T03:41:16;3.10;;;2.00;;
65552;SDS011;72126;51.560;14.368;2023-10-13T03:43:41;2.20;;;1.60;;
65552;SDS011;72126;51.560;14.368;2023-10-13T03:46:06;2.13;;;1.80;;
65552;SDS011;72126;51.560;14.368;2023-10-13T03:48:32;3.17;;;2.17;;
65552;SDS011;72126;51.560;14.368;2023-10-13T03:50:58;3.20;;;1.97;;
65552;SDS011;72126;51.560;14.368;2023-10-13T03:53:24;2.30;;;1.92;;
65552;SDS011;72126;51.560;14.368;2023-10-13T03:55:50;3.10;;;1.80;;
65552;SDS011;72126;51.560;14.368;2023-10-13T03:58:15;2.77;;;1.80;;
65552;SDS011;72126;51.560;14.368;2023-10-13T04:00:40;2.75;;;1.70;;
65552;SDS011;72126;51.560;14.368;2023-10-13T04:03:05;3.00;;;2.00;;
65552;SDS011;72126;51.560;14.368;2023-10-13T04:05:31;2.77;;;1.63;;
65552;SDS011;72126;51.560;14.368;2023-10-13T04:08:01;2.10;;;1.58;;
65552;SDS011;72126;51.560;14.368;2023-10-13T04:10:27;2.83;;;1.83;;
65552;SDS011;72126;51.560;14.368;2023-10-13T04:12:52;2.47;;;2.03;;
65552;SDS011;72126;51.560;14.368;2023-10-13T04:15:18;2.27;;;1.90;;
65552;SDS011;72126;51.560;14.368;2023-10-13T04:17:43;2.47;;;1.83;;
65552;SDS011;72126;51.560;14.368;2023-10-13T04:20:08;2.83;;;1.70;;
65552;SDS011;72126;51.560;14.368;2023-10-13T04:22:34;2.33;;;1.90;;
65552;SDS011;72126;51.560;14.368;2023-10-13T04:25:02;2.67;;;2.03;;
65552;SDS011;72126;51.560;14.368;2023-10-13T04:27:28;2.28;;;2.08;;
65552;SDS011;72126;51.560;14.368;2023-10-13T04:29:53;1.90;;;1.70;;
65552;SDS011;72126;51.560;14.368;2023-10-13T04:32:18;2.30;;;1.87;;
65552;SDS011;72126;51.560;14.368;2023-10-13T04:34:43;3.20;;;1.95;;
65552;SDS011;72126;51.560;14.368;2023-10-13T04:37:09;2.53;;;1.90;;
65552;SDS011;72126;51.560;14.368;2023-10-13T04:39:34;2.30;;;1.97;;
65552;SDS011;72126;51.560;14.368;2023-10-13T04:41:59;2.97;;;2.03;;
65552;SDS011;72126;51.560;14.368;2023-10-13T04:44:24;4.30;;;2.10;;
65552;SDS011;72126;51.560;14.368;2023-10-13T04:46:50;3.08;;;2.10;;
65552;SDS011;72126;51.560;14.368;2023-10-13T04:49:21;2.67;;;2.10;;
65552;SDS011;72126;51.560;14.368;2023-10-13T04:51:46;2.63;;;1.85;;
65552;SDS011;72126;51.560;14.368;2023-10-13T04:54:12;2.83;;;2.10;;
65552;SDS011;72126;51.560;14.368;2023-10-13T04:56:37;2.13;;;1.80;;
65552;SDS011;72126;51.560;14.368;2023-10-13T04:59:02;2.87;;;2.00;;
65552;SDS011;72126;51.560;14.368;2023-10-13T05:01:27;2.70;;;1.87;;
65552;SDS011;72126;51.560;14.368;2023-10-13T05:03:52;2.87;;;2.00;;
65552;SDS011;72126;51.560;14.368;2023-10-13T05:06:18;3.70;;;1.80;;
65552;SDS011;72126;51.560;14.368;2023-10-13T05:08:43;2.95;;;1.90;;
65552;SDS011;72126;51.560;14.368;2023-10-13T05:11:09;2.80;;;2.07;;
65552;SDS011;72126;51.560;14.368;2023-10-13T05:13:34;3.33;;;1.90;;
65552;SDS011;72126;51.560;14.368;2023-10-13T05:15:59;3.03;;;1.67;;
65552;SDS011;72126;51.560;14.368;2023-10-13T05:18:25;2.40;;;2.08;;
65552;SDS011;72126;51.560;14.368;2023-10-13T05:20:54;2.17;;;1.93;;
65552;SDS011;72126;51.560;14.368;2023-10-13T05:23:20;2.55;;;2.13;;
65552;SDS011;72126;51.560;14.368;2023-10-13T05:25:45;3.13;;;1.90;;
65552;SDS011;72126;51.560;14.368;2023-10-13T05:28:10;2.90;;;2.13;;
65552;SDS011;72126;51.560;14.368;2023-10-13T05:30:35;3.37;;;1.97;;
65552;SDS011;72126;51.560;14.368;2023-10-13T05:33:01;3.85;;;1.98;;
65552;SDS011;72126;51.560;14.368;2023-10-13T05:35:26;2.80;;;1.98;;
65552;SDS011;72126;51.560;14.368;2023-10-13T05:37:51;2.50;;;1.83;;
65552;SDS011;72126;51.560;14.368;2023-10-13T05:40:16;3.23;;;1.90;;
65552;SDS011;72126;51.560;14.368;2023-10-13T05:42:42;3.23;;;2.00;;
65552;SDS011;72126;51.560;14.368;2023-10-13T05:45:07;3.00;;;2.10;;
65552;SDS011;72126;51.560;14.368;2023-10-13T05:47:32;3.72;;;2.00;;
65552;SDS011;72126;51.560;14.368;2023-10-13T05:49:58;2.10;;;1.90;;
65552;SDS011;72126;51.560;14.368;2023-10-13T05:52:23;2.70;;;2.13;;
65552;SDS011;72126;51.560;14.368;2023-10-13T05:54:48;3.00;;;2.27;;
65552;SDS011;72126;51.560;14.368;2023-10-13T05:57:13;2.40;;;2.00;;
65552;SDS011;72126;51.560;14.368;2023-10-13T05:59:38;3.20;;;2.03;;
65552;SDS011;72126;51.560;14.368;2023-10-13T06:02:04;2.38;;;2.10;;
65552;SDS011;72126;51.560;14.368;2023-10-13T06:04:29;2.30;;;2.10;;
65552;SDS011;72126;51.560;14.368;2023-10-13T06:06:55;2.80;;;2.00;;
65552;SDS011;72126;51.560;14.368;2023-10-13T06:09:20;2.92;;;2.10;;
65552;SDS011;72126;51.560;14.368;2023-10-13T06:11:48;2.15;;;1.90;;
65552;SDS011;72126;51.560;14.368;2023-10-13T06:14:13;2.63;;;2.03;;
65552;SDS011;72126;51.560;14.368;2023-10-13T06:16:38;2.43;;;2.00;;
65552;SDS011;72126;51.560;14.368;2023-10-13T06:19:03;2.40;;;2.10;;
65552;SDS011;72126;51.560;14.368;2023-10-13T06:21:29;2.53;;;1.98;;
65552;SDS011;72126;51.560;14.368;2023-10-13T06:23:54;3.03;;;2.13;;
65552;SDS011;72126;51.560;14.368;2023-10-13T06:26:19;2.53;;;2.00;;
65552;SDS011;72126;51.560;14.368;2023-10-13T06:28:44;3.28;;;2.10;;
65552;SDS011;72126;51.560;14.368;2023-10-13T06:31:10;3.17;;;2.30;;
65552;SDS011;72126;51.560;14.368;2023-10-13T06:33:37;3.55;;;2.00;;
65552;SDS011;72126;51.560;14.368;2023-10-13T06:36:03;2.57;;;2.10;;
65552;SDS011;72126;51.560;14.368;2023-10-13T06:38:29;2.38;;;1.77;;
65552;SDS011;72126;51.560;14.368;2023-10-13T06:40:54;2.50;;;1.70;;
65552;SDS011;72126;51.560;14.368;2023-10-13T06:43:19;3.63;;;2.13;;
65552;SDS011;72126;51.560;14.368;2023-10-13T06:45:45;2.90;;;2.10;;
65552;SDS011;72126;51.560;14.368;2023-10-13T06:48:13;2.38;;;1.95;;
65552;SDS011;72126;51.560;14.368;2023-10-13T06:50:38;2.60;;;1.98;;
65552;SDS011;72126;51.560;14.368;2023-10-13T06:53:04;3.40;;;2.37;;
65552;SDS011;72126;51.560;14.368;2023-10-13T06:55:29;2.97;;;2.15;;
65552;SDS011;72126;51.560;14.368;2023-10-13T06:57:55;2.67;;;2.00;;
65552;SDS011;72126;51.560;14.368;2023-10-13T07:00:20;3.38;;;2.00;;
65552;SDS011;72126;51.560;14.368;2023-10-13T07:02:46;2.37;;;2.00;;
65552;SDS011;72126;51.560;14.368;2023-10-13T07:05:11;2.15;;;1.90;;
65552;SDS011;72126;51.560;14.368;2023-10-13T07:07:40;3.38;;;2.20;;
65552;SDS011;72126;51.560;14.368;2023-10-13T07:10:09;2.40;;;1.95;;
65552;SDS011;72126;51.560;14.368;2023-10-13T07:12:34;3.38;;;1.98;;
65552;SDS011;72126;51.560;14.368;2023-10-13T07:14:59;2.27;;;1.73;;
65552;SDS011;72126;51.560;14.368;2023-10-13T07:17:25;2.30;;;1.90;;
65552;SDS011;72126;51.560;14.368;2023-10-13T07:19:51;2.70;;;2.05;;
65552;SDS011;72126;51.560;14.368;2023-10-13T07:22:17;1.90;;;1.65;;
65552;SDS011;72126;51.560;14.368;2023-10-13T07:24:42;2.40;;;1.90;;
65552;SDS011;72126;51.560;14.368;2023-10-13T07:27:07;3.13;;;1.90;;
65552;SDS011;72126;51.560;14.368;2023-10-13T07:29:33;2.60;;;1.87;;
65552;SDS011;72126;51.560;14.368;2023-10-13T07:31:58;2.78;;;1.67;;
65552;SDS011;72126;51.560;14.368;2023-10-13T07:34:23;2.23;;;1.63;;
65552;SDS011;72126;51.560;14.368;2023-10-13T07:36:50;3.30;;;2.20;;
65552;SDS011;72126;51.560;14.368;2023-10-13T07:39:16;2.20;;;1.80;;
65552;SDS011;72126;51.560;14.368;2023-10-13T07:41:41;2.30;;;1.77;;
65552;SDS011;72126;51.560;14.368;2023-10-13T07:44:07;3.00;;;1.97;;
65552;SDS011;72126;51.560;14.368;2023-10-13T07:46:32;1.73;;;1.50;;
65552;SDS011;72126;51.560;14.368;2023-10-13T07:48:57;2.45;;;1.92;;
65552;SDS011;72126;51.560;14.368;2023-10-13T07:51:22;2.83;;;1.50;;
65552;SDS011;72126;51.560;14.368;2023-10-13T07:53:47;2.33;;;1.90;;
65552;SDS011;72126;51.560;14.368;2023-10-13T07:56:13;2.00;;;1.60;;
65552;SDS011;72126;51.560;14.368;2023-10-13T07:58:38;2.13;;;1.77;;
65552;SDS011;72126;51.560;14.368;2023-10-13T08:01:04;2.50;;;1.77;;
65552;SDS011;72126;51.560;14.368;2023-10-13T08:03:29;2.40;;;1.63;;
65552;SDS011;72126;51.560;14.368;2023-10-13T08:05:54;2.67;;;1.77;;
65552;SDS011;72126;51.560;14.368;2023-10-13T08:08:19;2.53;;;1.75;;
65552;SDS011;72126;51.560;14.368;2023-10-13T08:10:44;2.70;;;2.20;;
65552;SDS011;72126;51.560;14.368;2023-10-13T08:13:10;4.00;;;2.20;;
65552;SDS011;72126;51.560;14.368;2023-10-13T08:15:35;2.70;;;2.03;;
65552;SDS011;72126;51.560;14.368;2023-10-13T08:18:00;2.57;;;1.90;;
65552;SDS011;72126;51.560;14.368;2023-10-13T08:20:25;2.20;;;1.83;;
65552;SDS011;72126;51.560;14.368;2023-10-13T08:22:50;2.87;;;2.10;;
65552;SDS011;72126;51.560;14.368;2023-10-13T08:25:15;2.47;;;1.70;;
65552;SDS011;72126;51.560;14.368;2023-10-13T08:27:41;2.20;;;1.77;;
65552;SDS011;72126;51.560;14.368;2023-10-13T08:30:06;2.17;;;1.77;;
65552;SDS011;72126;51.560;14.368;2023-10-13T08:32:32;2.95;;;1.98;;
65552;SDS011;72126;51.560;14.368;2023-10-13T08:34:59;2.93;;;1.93;;
65552;SDS011;72126;51.560;14.368;2023-10-13T08:37:26;2.28;;;1.80;;
65552;SDS011;72126;51.560;14.368;2023-10-13T08:39:52;2.38;;;1.70;;
65552;SDS011;72126;51.560;14.368;2023-10-13T08:42:18;2.10;;;1.65;;
65552;SDS011;72126;51.560;14.368;2023-10-13T08:44:45;3.67;;;2.05;;
65552;SDS011;72126;51.560;14.368;2023-10-13T08:47:10;2.73;;;2.03;;
65552;SDS011;72126;51.560;14.368;2023-10-13T08:49:37;3.45;;;2.03;;
65552;SDS011;72126;51.560;14.368;2023-10-13T08:52:03;2.13;;;1.63;;
65552;SDS011;72126;51.560;14.368;2023-10-13T08:54:29;2.45;;;2.05;;
65552;SDS011;72126;51.560;14.368;2023-10-13T08:56:54;2.80;;;2.00;;
65552;SDS011;72126;51.560;14.368;2023-10-13T08:59:19;2.63;;;2.00;;
65552;SDS011;72126;51.560;14.368;2023-10-13T09:01:44;2.47;;;1.63;;
65552;SDS011;72126;51.560;14.368;2023-10-13T09:04:10;2.07;;;1.77;;
65552;SDS011;72126;51.560;14.368;2023-10-13T09:06:40;2.22;;;1.77;;
65552;SDS011;72126;51.560;14.368;2023-10-13T09:09:08;4.03;;;1.92;;
65552;SDS011;72126;51.560;14.368;2023-10-13T09:11:34;2.95;;;1.90;;
65552;SDS011;72126;51.560;14.368;2023-10-13T09:13:59;3.25;;;1.98;;
65552;SDS011;72126;51.560;14.368;2023-10-13T09:16:24;2.90;;;1.90;;
65552;SDS011;72126;51.560;14.368;2023-10-13T09:18:50;2.03;;;1.63;;
65552;SDS011;72126;51.560;14.368;2023-10-13T09:21:15;2.53;;;1.90;;
65552;SDS011;72126;51.560;14.368;2023-10-13T09:23:45;2.40;;;1.80;;
65552;SDS011;72126;51.560;14.368;2023-10-13T09:26:11;3.05;;;2.03;;
65552;SDS011;72126;51.560;14.368;2023-10-13T09:28:36;2.75;;;1.90;;
65552;SDS011;72126;51.560;14.368;2023-10-13T09:31:01;2.87;;;2.00;;
65552;SDS011;72126;51.560;14.368;2023-10-13T09:33:27;2.40;;;1.93;;
65552;SDS011;72126;51.560;14.368;2023-10-13T09:35:53;3.00;;;1.90;;
65552;SDS011;72126;51.560;14.368;2023-10-13T09:38:19;2.83;;;1.90;;
65552;SDS011;72126;51.560;14.368;2023-10-13T09:40:44;3.40;;;2.22;;
65552;SDS011;72126;51.560;14.368;2023-10-13T09:43:10;3.05;;;1.95;;
65552;SDS011;72126;51.560;14.368;2023-10-13T09:45:35;2.38;;;1.90;;
65552;SDS011;72126;51.560;14.368;2023-10-13T09:48:01;3.72;;;2.08;;
65552;SDS011;72126;51.560;14.368;2023-10-13T09:50:27;2.03;;;1.67;;
65552;SDS011;72126;51.560;14.368;2023-10-13T09:52:54;3.33;;;2.10;;
65552;SDS011;72126;51.560;14.368;2023-10-13T09:55:21;2.25;;;1.88;;
65552;SDS011;72126;51.560;14.368;2023-10-13T09:58:03;1.75;;;1.63;;
65552;SDS011;72126;51.560;14.368;2023-10-13T10:00:31;2.85;;;1.90;;
65552;SDS011;72126;51.560;14.368;2023-10-13T10:02:58;2.20;;;2.00;;
65552;SDS011;72126;51.560;14.368;2023-10-13T10:05:24;3.47;;;2.13;;
65552;SDS011;72126;51.560;14.368;2023-10-13T10:07:55;4.13;;;2.33;;
65552;SDS011;72126;51.560;14.368;2023-10-13T10:10:21;2.40;;;1.80;;
65552;SDS011;72126;51.560;14.368;2023-10-13T10:12:52;3.50;;;2.05;;
65552;SDS011;72126;51.560;14.368;2023-10-13T10:17:54;3.55;;;1.90;;
65552;SDS011;72126;51.560;14.368;2023-10-13T10:20:29;2.73;;;2.10;;
65552;SDS011;72126;51.560;14.368;2023-10-13T10:22:59;2.83;;;2.22;;
65552;SDS011;72126;51.560;14.368;2023-10-13T10:25:28;3.38;;;2.10;;
65552;SDS011;72126;51.560;14.368;2023-10-13T10:27:58;2.17;;;1.75;;
65552;SDS011;72126;51.560;14.368;2023-10-13T10:30:26;2.78;;;2.20;;
65552;SDS011;72126;51.560;14.368;2023-10-13T10:32:57;3.13;;;2.00;;
65552;SDS011;72126;51.560;14.368;2023-10-13T10:35:23;2.20;;;1.80;;
65552;SDS011;72126;51.560;14.368;2023-10-13T10:37:48;2.30;;;1.63;;
65552;SDS011;72126;51.560;14.368;2023-10-13T10:40:17;2.88;;;1.95;;
65552;SDS011;72126;51.560;14.368;2023-10-13T10:42:43;2.70;;;1.90;;
65552;SDS011;72126;51.560;14.368;2023-10-13T10:45:09;2.60;;;1.90;;
65552;SDS011;72126;51.560;14.368;2023-10-13T10:47:35;2.92;;;2.03;;
65552;SDS011;72126;51.560;14.368;2023-10-13T10:50:00;2.70;;;1.90;;
65552;SDS011;72126;51.560;14.368;2023-10-13T10:52:26;2.83;;;1.98;;
65552;SDS011;72126;51.560;14.368;2023-10-13T10:54:59;1.98;;;1.60;;
65552;SDS011;72126;51.560;14.368;2023-10-13T10:57:25;3.30;;;1.85;;
65552;SDS011;72126;51.560;14.368;2023-10-13T10:59:50;2.80;;;2.10;;
65552;SDS011;72126;51.560;14.368;2023-10-13T11:02:15;2.80;;;2.00;;
65552;SDS011;72126;51.560;14.368;2023-10-13T11:04:41;2.70;;;1.70;;
65552;SDS011;72126;51.560;14.368;2023-10-13T11:07:06;3.15;;;1.90;;
65552;SDS011;72126;51.560;14.368;2023-10-13T11:09:32;2.83;;;2.08;;
65552;SDS011;72126;51.560;14.368;2023-10-13T11:14:32;3.85;;;2.13;;
65552;SDS011;72126;51.560;14.368;2023-10-13T11:16:58;2.73;;;2.07;;
65552;SDS011;72126;51.560;14.368;2023-10-13T11:19:34;2.88;;;2.10;;
65552;SDS011;72126;51.560;14.368;2023-10-13T11:22:09;2.88;;;1.80;;
65552;SDS011;72126;51.560;14.368;2023-10-13T11:24:40;3.58;;;1.95;;
65552;SDS011;72126;51.560;14.368;2023-10-13T11:27:13;2.40;;;2.10;;
65552;SDS011;72126;51.560;14.368;2023-10-13T11:29:41;4.07;;;1.80;;
65552;SDS011;72126;51.560;14.368;2023-10-13T11:32:06;2.90;;;2.07;;
65552;SDS011;72126;51.560;14.368;2023-10-13T11:34:31;2.60;;;1.83;;
65552;SDS011;72126;51.560;14.368;2023-10-13T11:36:56;2.57;;;2.00;;
65552;SDS011;72126;51.560;14.368;2023-10-13T11:39:24;4.50;;;2.23;;
65552;SDS011;72126;51.560;14.368;2023-10-13T11:41:50;1.80;;;1.70;;
65552;SDS011;72126;51.560;14.368;2023-10-13T11:44:15;2.15;;;1.83;;
65552;SDS011;72126;51.560;14.368;2023-10-13T11:46:41;1.58;;;1.45;;
65552;SDS011;72126;51.560;14.368;2023-10-13T11:49:07;2.43;;;2.07;;
65552;SDS011;72126;51.560;14.368;2023-10-13T11:51:33;2.83;;;2.20;;
65552;SDS011;72126;51.560;14.368;2023-10-13T11:53:59;3.37;;;2.30;;
65552;SDS011;72126;51.560;14.368;2023-10-13T11:56:24;2.67;;;1.93;;
65552;SDS011;72126;51.560;14.368;2023-10-13T11:58:50;2.90;;;2.08;;
65552;SDS011;72126;51.560;14.368;2023-10-13T12:01:16;3.35;;;2.00;;
65552;SDS011;72126;51.560;14.368;2023-10-13T12:03:41;3.28;;;2.10;;
65552;SDS011;72126;51.560;14.368;2023-10-13T12:06:08;3.05;;;1.95;;
65552;SDS011;72126;51.560;14.368;2023-10-13T12:08:34;2.70;;;2.10;;
65552;SDS011;72126;51.560;14.368;2023-10-13T12:10:59;2.97;;;2.00;;
65552;SDS011;72126;51.560;14.368;2023-10-13T12:13:24;2.77;;;2.00;;
65552;SDS011;72126;51.560;14.368;2023-10-13T12:15:49;3.67;;;2.27;;
65552;SDS011;72126;51.560;14.368;2023-10-13T12:18:15;3.00;;;1.93;;
65552;SDS011;72126;51.560;14.368;2023-10-13T12:20:40;3.28;;;2.03;;
65552;SDS011;72126;51.560;14.368;2023-10-13T12:23:06;2.97;;;2.20;;
65552;SDS011;72126;51.560;14.368;2023-10-13T12:25:31;3.20;;;2.20;;
65552;SDS011;72126;51.560;14.368;2023-10-13T12:27:56;2.47;;;1.98;;
65552;SDS011;72126;51.560;14.368;2023-10-13T12:30:22;2.67;;;2.10;;
65552;SDS011;72126;51.560;14.368;2023-10-13T12:32:49;3.00;;;1.98;;
65552;SDS011;72126;51.560;14.368;2023-10-13T12:35:14;2.72;;;2.00;;
65552;SDS011;72126;51.560;14.368;2023-10-13T12:37:40;3.50;;;2.13;;
65552;SDS011;72126;51.560;14.368;2023-10-13T12:40:05;3.77;;;1.97;;
65552;SDS011;72126;51.560;14.368;2023-10-13T12:42:32;3.28;;;2.10;;
65552;SDS011;72126;51.560;14.368;2023-10-13T12:44:57;3.57;;;2.20;;
65552;SDS011;72126;51.560;14.368;2023-10-13T12:47:22;3.50;;;2.10;;
65552;SDS011;72126;51.560;14.368;2023-10-13T12:49:47;3.37;;;2.10;;
65552;SDS011;72126;51.560;14.368;2023-10-13T12:52:13;2.97;;;1.83;;
65552;SDS011;72126;51.560;14.368;2023-10-13T12:54:38;2.17;;;1.95;;
65552;SDS011;72126;51.560;14.368;2023-10-13T12:57:03;5.57;;;2.50;;
65552;SDS011;72126;51.560;14.368;2023-10-13T12:59:29;3.40;;;2.30;;
65552;SDS011;72126;51.560;14.368;2023-10-13T13:01:54;4.07;;;2.30;;
65552;SDS011;72126;51.560;14.368;2023-10-13T13:04:19;3.28;;;2.28;;
65552;SDS011;72126;51.560;14.368;2023-10-13T13:06:45;5.97;;;2.55;;
65552;SDS011;72126;51.560;14.368;2023-10-13T13:09:11;4.95;;;2.50;;
65552;SDS011;72126;51.560;14.368;2023-10-13T13:11:36;2.73;;;2.20;;
65552;SDS011;72126;51.560;14.368;2023-10-13T13:14:02;3.88;;;2.53;;
65552;SDS011;72126;51.560;14.368;2023-10-13T13:16:27;5.47;;;2.93;;
65552;SDS011;72126;51.560;14.368;2023-10-13T13:18:52;4.90;;;2.93;;
65552;SDS011;72126;51.560;14.368;2023-10-13T13:21:18;5.13;;;2.92;;
65552;SDS011;72126;51.560;14.368;2023-10-13T13:23:43;6.93;;;3.30;;
65552;SDS011;72126;51.560;14.368;2023-10-13T13:26:08;6.20;;;3.40;;
65552;SDS011;72126;51.560;14.368;2023-10-13T13:28:33;5.97;;;3.23;;
65552;SDS011;72126;51.560;14.368;2023-10-13T13:30:58;5.23;;;3.77;;
65552;SDS011;72126;51.560;14.368;2023-10-13T13:33:24;6.22;;;3.83;;
65552;SDS011;72126;51.560;14.368;2023-10-13T13:35:49;4.53;;;3.30;;
65552;SDS011;72126;51.560;14.368;2023-10-13T13:38:14;5.80;;;3.47;;
65552;SDS011;72126;51.560;14.368;2023-10-13T13:40:39;6.57;;;3.92;;
65552;SDS011;72126;51.560;14.368;2023-10-13T13:43:05;8.00;;;3.73;;
65552;SDS011;72126;51.560;14.368;2023-10-13T13:45:30;6.40;;;3.95;;
65552;SDS011;72126;51.560;14.368;2023-10-13T13:47:55;7.10;;;3.60;;
65552;SDS011;72126;51.560;14.368;2023-10-13T13:52:46;6.50;;;3.65;;
65552;SDS011;72126;51.560;14.368;2023-10-13T13:55:11;8.27;;;3.53;;
65552;SDS011;72126;51.560;14.368;2023-10-13T13:57:37;5.28;;;3.72;;
65552;SDS011;72126;51.560;14.368;2023-10-13T14:00:02;7.00;;;3.60;;
65552;SDS011;72126;51.560;14.368;2023-10-13T14:02:27;7.47;;;3.90;;
65552;SDS011;72126;51.560;14.368;2023-10-13T14:04:52;5.60;;;3.30;;
65552;SDS011;72126;51.560;14.368;2023-10-13T14:07:18;5.00;;;3.67;;
65552;SDS011;72126;51.560;14.368;2023-10-13T14:09:43;5.00;;;3.35;;
65552;SDS011;72126;51.560;14.368;2023-10-13T14:12:08;12.57;;;4.37;;
65552;SDS011;72126;51.560;14.368;2023-10-13T14:14:33;4.40;;;3.17;;
65552;SDS011;72126;51.560;14.368;2023-10-13T14:16:59;6.57;;;3.00;;
65552;SDS011;72126;51.560;14.368;2023-10-13T14:19:24;5.07;;;3.33;;
65552;SDS011;72126;51.560;14.368;2023-10-13T14:21:49;8.33;;;3.53;;
65552;SDS011;72126;51.560;14.368;2023-10-13T14:24:14;6.53;;;3.40;;
65552;SDS011;72126;51.560;14.368;2023-10-13T14:26:40;7.00;;;3.63;;
65552;SDS011;72126;51.560;14.368;2023-10-13T14:29:05;6.78;;;3.45;;
65552;SDS011;72126;51.560;14.368;2023-10-13T14:31:30;9.30;;;3.50;;